Time;durP1;ratioP1;P1;durP2;ratioP2;P2;SDS_P1;SDS_P2;PMS_P1;PMS_P2;Temp;Humidity;BMP_temperature;BMP_pressure;BME280_temperature;BME280_humidity;BME280_pressure;Samples;Min_cycle;Max_cycle;Signal;HPM_P1;HPM_P2
2022/08/18 00:02:18;;;;;;;67.33;42.37;;;;;;;17.59;100.00;101172.06;5075212;28;20372;-83
2022/08/18 00:04:45;;;;;;;75.75;45.28;;;;;;;17.63;100.00;101164.13;5075248;28;20031;-82
2022/08/18 00:07:15;;;;;;;68.90;44.15;;;;;;;17.68;100.00;101174.88;5075017;28;20039;-83
2022/08/18 00:09:42;;;;;;;71.22;46.55;;;;;;;17.77;100.00;101180.41;5074635;28;20120;-83
2022/08/18 00:12:21;;;;;;;67.95;43.40;;;;;;;17.81;100.00;101186.84;5075284;28;20109;-83
2022/08/18 00:14:47;;;;;;;66.93;42.37;;;;;;;17.86;100.00;101186.78;5075655;28;20040;-83
2022/08/18 00:17:13;;;;;;;65.23;42.17;;;;;;;17.91;100.00;101186.66;5076103;28;20275;-82
2022/08/18 00:19:39;;;;;;;66.88;43.47;;;;;;;17.95;100.00;101187.69;5073634;28;20032;-82
2022/08/18 00:22:04;;;;;;;72.27;44.77;;;;;;;17.99;100.00;101183.31;5075438;28;20043;-83
2022/08/18 00:24:31;;;;;;;70.15;45.58;;;;;;;17.98;100.00;101180.91;5075617;28;20070;-82
2022/08/18 00:26:56;;;;;;;67.43;43.30;;;;;;;18.00;100.00;101193.06;5075272;28;20032;-83
2022/08/18 00:29:22;;;;;;;64.30;42.80;;;;;;;17.93;100.00;101181.75;5069008;28;20029;-82
2022/08/18 00:31:48;;;;;;;69.78;42.25;;;;;;;17.97;100.00;101188.19;5073491;28;20114;-83
2022/08/18 00:34:13;;;;;;;67.37;43.13;;;;;;;17.97;100.00;101184.69;5075648;28;20597;-83
2022/08/18 00:39:14;;;;;;;64.50;41.23;;;;;;;18.00;100.00;101187.63;5659387;23;20064;-82
2022/08/18 00:41:39;;;;;;;64.18;41.53;;;;;;;18.07;100.00;101197.28;5075277;28;20102;-83
2022/08/18 00:44:06;;;;;;;62.73;41.43;;;;;;;18.08;100.00;101201.56;5075701;28;20404;-82
2022/08/18 00:46:34;;;;;;;63.78;41.17;;;;;;;18.01;100.00;101210.09;5073724;28;20028;-83
2022/08/18 00:49:00;;;;;;;67.13;42.97;;;;;;;18.09;100.00;101216.75;5062282;28;20029;-83
2022/08/18 00:51:46;;;;;;;63.50;40.37;;;;;;;18.09;100.00;101217.56;5054753;28;20287;-83
2022/08/18 00:54:34;;;;;;;58.25;40.03;;;;;;;18.04;100.00;101201.38;5073045;28;20514;-83
2022/08/18 00:57:05;;;;;;;60.60;40.65;;;;;;;17.99;100.00;101202.28;5055632;28;20116;-83
2022/08/18 00:59:42;;;;;;;61.78;40.42;;;;;;;17.84;100.00;101200.59;5051081;28;20103;-83
2022/08/18 01:02:14;;;;;;;67.30;41.25;;;;;;;17.71;100.00;101198.69;5052785;28;20021;-83
2022/08/18 01:04:51;;;;;;;64.03;40.83;;;;;;;17.64;100.00;101200.97;5051901;28;20057;-83
2022/08/18 01:07:24;;;;;;;66.00;41.22;;;;;;;17.64;100.00;101206.38;5051109;28;20052;-83
2022/08/18 01:09:50;;;;;;;71.23;42.87;;;;;;;17.64;100.00;101204.47;5050428;28;20033;-83
2022/08/18 01:12:16;;;;;;;67.93;42.87;;;;;;;17.58;100.00;101189.41;5052395;28;20329;-83
2022/08/18 01:14:42;;;;;;;73.90;44.20;;;;;;;17.63;100.00;101191.22;5051929;28;20361;-83
2022/08/18 01:22:48;;;;;;;66.43;42.00;;;;;;;17.65;100.00;101192.53;5031955;28;20278;-83
2022/08/18 01:28:02;;;;;;;64.43;40.78;;;;;;;17.48;100.00;101197.72;5034126;28;20040;-83
2022/08/18 01:30:30;;;;;;;66.45;40.38;;;;;;;17.37;100.00;101189.72;5050888;28;20158;-82
2022/08/18 01:32:57;;;;;;;67.47;42.50;;;;;;;17.31;100.00;101195.53;5050195;28;20059;-82
2022/08/18 01:35:24;;;;;;;68.60;42.17;;;;;;;17.24;100.00;101202.13;5067861;28;20111;-83
2022/08/18 01:37:51;;;;;;;67.95;41.88;;;;;;;17.22;100.00;101198.91;5069086;28;20039;-83
2022/08/18 01:40:19;;;;;;;66.63;42.08;;;;;;;17.15;100.00;101187.63;5051121;28;20032;-83
2022/08/18 01:42:45;;;;;;;69.25;42.17;;;;;;;17.20;100.00;101203.81;5050219;28;20032;-82
2022/08/18 01:45:15;;;;;;;74.03;44.30;;;;;;;17.22;100.00;101200.81;5052210;28;20414;-82
2022/08/18 01:47:42;;;;;;;72.93;44.33;;;;;;;17.26;100.00;101199.91;5050297;28;20295;-82
2022/08/18 01:50:09;;;;;;;67.85;41.75;;;;;;;17.27;100.00;101200.72;5042355;28;20025;-82
2022/08/18 01:52:35;;;;;;;77.80;44.50;;;;;;;17.23;100.00;101188.88;5047467;28;20514;-83
2022/08/18 01:55:02;;;;;;;77.30;44.67;;;;;;;17.17;100.00;101188.16;5050950;28;20021;-83
2022/08/18 01:57:28;;;;;;;70.53;42.38;;;;;;;17.13;100.00;101183.63;5049509;28;20388;-82
2022/08/18 01:59:54;;;;;;;66.30;40.83;;;;;;;17.08;100.00;101182.59;5030468;28;20362;-83
2022/08/18 02:02:25;;;;;;;67.67;41.67;;;;;;;16.98;100.00;101177.31;5041596;28;20313;-83
2022/08/18 02:04:53;;;;;;;73.28;42.80;;;;;;;16.97;100.00;101180.31;5051217;28;20021;-83
2022/08/18 02:07:20;;;;;;;71.93;43.60;;;;;;;16.90;100.00;101181.44;5050615;28;20041;-83
2022/08/18 02:09:45;;;;;;;72.65;41.90;;;;;;;16.85;100.00;101180.72;5030273;28;20025;-82
2022/08/18 02:12:11;;;;;;;73.60;44.40;;;;;;;16.76;100.00;101173.28;5031045;28;20021;-83
2022/08/18 02:14:37;;;;;;;76.03;44.07;;;;;;;16.80;100.00;101173.50;5041464;28;20108;-84
2022/08/18 02:17:06;;;;;;;77.55;44.80;;;;;;;16.77;100.00;101177.59;5062284;28;20033;-83
2022/08/18 02:19:37;;;;;;;73.45;44.20;;;;;;;16.76;100.00;101186.81;5050997;28;20037;-83
2022/08/18 02:22:03;;;;;;;79.90;44.65;;;;;;;16.67;100.00;101176.91;5050823;28;20033;-83
2022/08/18 02:24:29;;;;;;;72.15;42.80;;;;;;;16.62;100.00;101180.47;5050878;28;20032;-83
2022/08/18 02:26:54;;;;;;;65.30;39.40;;;;;;;16.62;100.00;101192.13;5049647;28;20017;-83
2022/08/18 02:29:20;;;;;;;68.75;40.33;;;;;;;16.54;100.00;101178.44;5036393;28;20029;-83
2022/08/18 02:31:45;;;;;;;65.97;40.43;;;;;;;16.55;100.00;101199.75;5042722;28;20163;-83
2022/08/18 02:34:10;;;;;;;65.63;39.93;;;;;;;16.49;100.00;101193.63;5031441;28;20029;-83
2022/08/18 02:36:36;;;;;;;71.13;40.93;;;;;;;16.52;100.00;101205.78;5030549;28;20072;-83
2022/08/18 02:39:01;;;;;;;67.05;39.88;;;;;;;16.47;100.00;101197.72;5029106;28;20246;-83
2022/08/18 02:41:27;;;;;;;65.10;38.80;;;;;;;16.41;100.00;101199.69;5043482;28;20476;-83
2022/08/18 02:43:53;;;;;;;64.28;39.28;;;;;;;16.42;100.00;101205.88;5046605;28;20029;-83
2022/08/18 02:46:21;;;;;;;69.17;40.67;;;;;;;16.39;100.00;101207.25;5050518;28;20040;-82
2022/08/18 02:48:47;;;;;;;60.20;36.75;;;;;;;16.33;100.00;101203.00;5049810;28;20027;-82
2022/08/18 02:51:17;;;;;;;64.00;38.28;;;;;;;16.30;100.00;101198.97;5050014;28;20111;-82
2022/08/18 02:53:50;;;;;;;66.63;39.42;;;;;;;16.17;100.00;101197.75;5030267;28;20021;-82
2022/08/18 02:58:54;;;;;;;60.72;36.97;;;;;;;16.13;100.00;101206.75;3174204;26;20068;-84
2022/08/18 03:01:20;;;;;;;59.20;35.60;;;;;;;16.12;100.00;101207.81;5049262;28;20109;-84
2022/08/18 03:03:47;;;;;;;62.67;38.47;;;;;;;16.04;100.00;101203.84;5049917;28;20378;-84
2022/08/18 03:06:12;;;;;;;65.53;38.40;;;;;;;16.01;100.00;101193.59;5057932;28;20021;-84
2022/08/18 03:08:38;;;;;;;67.70;38.35;;;;;;;16.02;100.00;101197.94;5069792;28;20506;-83
2022/08/18 03:11:03;;;;;;;61.63;37.47;;;;;;;16.02;100.00;101206.81;5068412;28;20082;-84
2022/08/18 03:13:29;;;;;;;68.13;41.03;;;;;;;16.08;100.00;101215.69;5068220;28;20130;-83
2022/08/18 03:15:55;;;;;;;72.97;42.13;;;;;;;16.09;100.00;101206.47;5069074;28;20029;-83
2022/08/18 03:18:22;;;;;;;73.43;42.17;;;;;;;16.17;100.00;101211.28;5069168;28;20028;-84
2022/08/18 03:20:47;;;;;;;72.47;40.20;;;;;;;16.09;100.00;101203.78;5068269;28;20354;-81
2022/08/18 03:23:13;;;;;;;62.50;39.13;;;;;;;16.09;100.00;101209.19;5069896;28;20494;-81
2022/08/18 03:25:48;;;;;;;62.90;37.80;;;;;;;15.99;100.00;101204.69;5069690;28;20016;-82
2022/08/18 03:28:15;;;;;;;61.80;37.97;;;;;;;16.05;100.00;101218.97;5068407;28;20024;-82
2022/08/18 03:30:42;;;;;;;63.88;38.47;;;;;;;16.03;100.00;101210.34;5066664;28;20427;-82
2022/08/18 03:33:08;;;;;;;67.32;39.40;;;;;;;16.00;100.00;101210.91;5067776;28;20383;-81
2022/08/18 03:35:35;;;;;;;66.43;38.97;;;;;;;16.01;100.00;101221.44;5049410;28;20035;-82
2022/08/18 03:38:01;;;;;;;71.25;39.72;;;;;;;15.92;100.00;101203.41;5049443;28;20022;-82
2022/08/18 03:40:26;;;;;;;67.00;38.17;;;;;;;15.95;100.00;101224.47;5049947;28;20667;-83
2022/08/18 03:42:52;;;;;;;74.00;39.80;;;;;;;15.90;100.00;101217.22;5054277;28;20025;-82
2022/08/18 03:45:17;;;;;;;66.37;39.13;;;;;;;15.80;100.00;101214.56;5069655;28;20025;-82
2022/08/18 03:47:44;;;;;;;73.97;41.23;;;;;;;15.87;100.00;101226.72;5067727;28;20472;-82
2022/08/18 03:50:10;;;;;;;72.53;39.75;;;;;;;15.89;100.00;101221.00;5069089;28;20067;-82
2022/08/18 03:52:36;;;;;;;72.88;42.40;;;;;;;15.88;100.00;101209.41;5066162;28;20052;-82
2022/08/18 03:55:02;;;;;;;75.35;39.95;;;;;;;15.95;100.00;101217.19;5049506;28;20365;-82
2022/08/18 03:57:30;;;;;;;76.93;41.27;;;;;;;16.02;100.00;101223.03;5049431;28;20090;-82
2022/08/18 03:59:55;;;;;;;77.10;43.63;;;;;;;16.03;100.00;101207.66;5048694;28;20033;-82
2022/08/18 04:02:20;;;;;;;76.23;40.30;;;;;;;16.16;100.00;101212.38;5052035;28;20058;-83
2022/08/18 04:04:50;;;;;;;72.03;41.30;;;;;;;16.22;100.00;101205.00;5068132;28;20063;-83
2022/08/18 04:07:16;;;;;;;72.20;40.25;;;;;;;16.29;100.00;101216.28;5060222;28;20033;-83
2022/08/18 04:09:42;;;;;;;77.50;42.92;;;;;;;16.33;100.00;101219.22;5066990;28;20032;-83
2022/08/18 04:12:14;;;;;;;70.07;39.95;;;;;;;16.37;100.00;101217.56;5064417;28;20077;-83
2022/08/18 04:14:41;;;;;;;68.00;38.97;;;;;;;16.36;100.00;101215.94;5069251;28;20033;-83
2022/08/18 04:17:07;;;;;;;66.88;40.22;;;;;;;16.46;100.00;101221.22;5067858;28;20029;-83
2022/08/18 04:19:33;;;;;;;61.87;37.50;;;;;;;16.48;100.00;101212.84;5066629;28;20032;-83
2022/08/18 04:22:00;;;;;;;65.27;39.50;;;;;;;16.55;100.00;101220.59;5052940;28;20639;-85
2022/08/18 04:24:27;;;;;;;66.43;38.65;;;;;;;16.54;100.00;101217.09;5056417;28;20022;-83
2022/08/18 04:26:55;;;;;;;60.78;37.33;;;;;;;16.63;100.00;101225.38;5067933;28;20039;-84
2022/08/18 04:29:21;;;;;;;63.25;37.90;;;;;;;16.67;100.00;101222.91;5058723;28;20072;-84
2022/08/18 04:31:48;;;;;;;60.92;36.95;;;;;;;16.67;100.00;101218.28;5055782;28;20140;-84
2022/08/18 04:34:14;;;;;;;60.47;37.20;;;;;;;16.69;100.00;101220.72;5053312;28;20043;-84
2022/08/18 04:36:41;;;;;;;64.38;38.13;;;;;;;16.66;100.00;101222.09;5063809;28;20388;-84
2022/08/18 04:39:11;;;;;;;59.70;37.07;;;;;;;16.56;100.00;101216.81;5072684;28;20115;-83
2022/08/18 04:41:39;;;;;;;61.95;37.75;;;;;;;16.58;100.00;101220.03;5065260;28;20136;-84
2022/08/18 04:44:08;;;;;;;72.72;40.10;;;;;;;16.63;100.00;101228.06;5053875;28;20067;-85
2022/08/18 04:46:42;;;;;;;69.90;40.38;;;;;;;16.68;100.00;101238.06;5057046;28;20028;-84
2022/08/18 04:49:09;;;;;;;68.88;38.95;;;;;;;16.70;100.00;101225.84;5074683;28;20033;-84
2022/08/18 04:51:35;;;;;;;67.70;39.83;;;;;;;16.76;100.00;101230.09;5070137;28;20028;-84
2022/08/18 04:54:00;;;;;;;69.33;39.80;;;;;;;16.70;100.00;101225.84;5071320;28;20491;-84
2022/08/18 04:56:29;;;;;;;68.53;39.20;;;;;;;16.72;100.00;101245.28;5071916;28;20365;-84
2022/08/18 04:58:57;;;;;;;70.95;40.05;;;;;;;16.72;100.00;101241.75;5072121;28;20437;-84
2022/08/18 05:01:26;;;;;;;69.83;39.77;;;;;;;16.68;100.00;101232.63;5055419;28;20036;-84
2022/08/18 05:03:53;;;;;;;71.80;40.77;;;;;;;16.71;100.00;101226.63;5054500;28;20836;-84
2022/08/18 05:06:25;;;;;;;69.72;39.78;;;;;;;16.78;100.00;101248.72;5070880;28;20030;-84
2022/08/18 05:08:56;;;;;;;74.10;41.13;;;;;;;16.84;100.00;101246.75;5070262;28;20087;-84
2022/08/18 05:11:23;;;;;;;78.07;42.85;;;;;;;16.83;100.00;101251.38;5071477;28;20025;-84
2022/08/18 05:13:51;;;;;;;78.90;42.72;;;;;;;16.81;100.00;101248.16;5072288;28;20031;-84
2022/08/18 05:16:17;;;;;;;78.00;42.53;;;;;;;16.93;100.00;101255.88;5071572;28;20025;-84
2022/08/18 05:18:42;;;;;;;78.20;42.58;;;;;;;17.00;100.00;101258.25;5072692;28;20031;-85
2022/08/18 05:21:12;;;;;;;96.33;42.43;;;;;;;17.06;100.00;101263.28;5071667;28;20029;-84
2022/08/18 05:23:40;;;;;;;71.22;40.47;;;;;;;17.13;100.00;101252.09;5065839;28;20071;-84
2022/08/18 05:26:05;;;;;;;78.23;42.90;;;;;;;17.16;100.00;101242.59;5062223;28;20510;-84
2022/08/18 05:28:33;;;;;;;74.03;43.27;;;;;;;17.20;100.00;101249.84;5051736;28;20333;-84
2022/08/18 05:31:05;;;;;;;72.43;40.30;;;;;;;17.31;100.00;101260.53;5051111;28;20029;-83
2022/08/18 05:33:31;;;;;;;69.50;39.50;;;;;;;17.45;100.00;101255.19;5066148;28;20020;-83
2022/08/18 05:36:03;;;;;;;69.53;40.03;;;;;;;17.49;100.00;101256.22;5070904;28;20294;-82
2022/08/18 05:38:41;;;;;;;71.60;39.20;;;;;;;17.53;100.00;101262.63;5070934;28;20032;-82
2022/08/18 05:41:08;;;;;;;66.97;38.00;;;;;;;17.59;100.00;101263.38;5059045;28;20294;-83
2022/08/18 05:43:35;;;;;;;64.57;38.60;;;;;;;17.68;100.00;101257.00;5070145;28;20112;-83
2022/08/18 05:46:02;;;;;;;75.05;39.58;;;;;;;17.76;100.00;101260.13;5071316;28;20036;-83
2022/08/18 05:48:27;;;;;;;73.78;38.95;;;;;;;17.80;100.00;101261.13;5071426;28;20024;-83
2022/08/18 05:50:54;;;;;;;60.57;37.43;;;;;;;17.79;100.00;101254.09;5067555;28;20043;-84
2022/08/18 05:56:45;;;;;;;63.55;38.13;;;;;;;17.85;100.00;101261.06;5071400;28;20115;-82
2022/08/18 05:58:56;;;;;;;56.90;35.55;;;;;;;18.01;100.00;101272.47;5071133;28;20047;-82
2022/08/18 06:01:50;;;;;;;56.08;34.92;;;;;;;18.14;100.00;101270.88;5056986;28;20547;-82
2022/08/18 06:04:40;;;;;;;60.47;36.40;;;;;;;18.14;100.00;101262.75;5053044;28;20487;-83
2022/08/18 06:07:13;;;;;;;63.25;37.75;;;;;;;18.11;100.00;101271.47;5065388;28;20032;-82
2022/08/18 06:09:50;;;;;;;60.40;36.85;;;;;;;18.21;100.00;101267.78;5052114;28;20029;-82
2022/08/18 06:12:23;;;;;;;60.30;36.67;;;;;;;18.32;100.00;101266.53;5056032;28;20033;-82
2022/08/18 06:14:49;;;;;;;52.90;33.57;;;;;;;18.42;100.00;101273.66;5069102;28;20052;-82
2022/08/18 06:17:34;;;;;;;52.30;34.63;;;;;;;18.51;100.00;101269.13;5071030;28;20298;-82
2022/08/18 06:20:32;;;;;;;58.53;35.17;;;;;;;18.58;100.00;101274.97;5066887;28;20115;-83
2022/08/18 06:23:24;;;;;;;53.95;33.63;;;;;;;18.70;100.00;101279.91;5070568;28;20032;-82
2022/08/18 06:26:06;;;;;;;50.33;31.40;;;;;;;18.83;100.00;101283.69;5060918;28;20021;-83
2022/08/18 06:29:04;;;;;;;47.22;31.02;;;;;;;18.95;100.00;101288.66;5057805;28;20051;-82
2022/08/18 06:31:44;;;;;;;46.88;31.98;;;;;;;19.04;100.00;101291.44;5070203;28;20025;-82
2022/08/18 06:34:23;;;;;;;43.95;28.83;;;;;;;19.13;100.00;101292.34;5063288;28;20040;-83
2022/08/18 06:37:06;;;;;;;48.90;30.45;;;;;;;19.24;100.00;101297.56;5070669;28;20111;-83
2022/08/18 06:39:43;;;;;;;42.30;29.02;;;;;;;19.25;100.00;101296.44;5064122;28;20028;-82
2022/08/18 06:42:09;;;;;;;44.97;29.80;;;;;;;19.24;100.00;101292.13;5066399;28;20144;-81
2022/08/18 06:44:49;;;;;;;43.37;29.40;;;;;;;19.35;100.00;101296.25;5069075;28;20419;-82
2022/08/18 06:47:43;;;;;;;39.10;27.10;;;;;;;19.56;100.00;101298.47;5061549;28;20060;-82
2022/08/18 06:50:21;;;;;;;41.67;27.67;;;;;;;19.72;100.00;101296.19;5049856;28;20520;-83
2022/08/18 06:52:54;;;;;;;40.90;27.67;;;;;;;19.78;100.00;101309.34;5069431;28;20036;-84
2022/08/18 06:55:32;;;;;;;39.53;26.33;;;;;;;19.68;100.00;101304.97;5069322;28;20278;-82
2022/08/18 06:58:01;;;;;;;38.38;25.30;;;;;;;19.60;100.00;101296.75;5059095;28;20073;-83
2022/08/18 07:00:30;;;;;;;43.97;27.92;;;;;;;19.92;100.00;101292.19;5066428;28;20115;-83
2022/08/18 07:03:34;;;;;;;40.97;29.02;;;;;;;20.22;100.00;101298.78;5069558;28;20082;-82
2022/08/18 07:06:06;;;;;;;40.70;27.08;;;;;;;20.33;100.00;101306.69;5054477;28;20043;-82
2022/08/18 07:08:36;;;;;;;40.55;28.73;;;;;;;20.59;100.00;101314.97;5069884;28;20099;-82
2022/08/18 07:11:20;;;;;;;42.30;27.83;;;;;;;20.77;100.00;101309.63;5050543;28;20403;-83
2022/08/18 07:13:49;;;;;;;36.65;25.00;;;;;;;20.72;99.40;101311.31;5069526;28;20122;-82
2022/08/18 07:16:29;;;;;;;35.35;24.20;;;;;;;20.81;99.24;101316.03;5068569;28;20071;-82
2022/08/18 07:19:10;;;;;;;31.63;22.93;;;;;;;20.82;99.63;101306.72;5051718;28;20055;-82
2022/08/18 07:21:37;;;;;;;34.20;22.53;;;;;;;20.93;97.56;101308.06;5069769;28;20270;-82
2022/08/18 07:24:07;;;;;;;30.50;23.27;;;;;;;21.06;97.70;101311.78;5051592;28;20042;-83
2022/08/18 07:26:59;;;;;;;32.10;23.40;;;;;;;21.23;100.00;101315.66;5069432;28;20091;-83
2022/08/18 07:29:25;;;;;;;30.77;22.27;;;;;;;21.41;96.62;101316.44;5051729;28;20031;-83
2022/08/18 07:31:53;;;;;;;31.85;23.23;;;;;;;21.26;94.83;101310.34;5065351;28;20033;-82
2022/08/18 07:34:25;;;;;;;34.28;23.70;;;;;;;21.23;96.52;101312.91;5062904;28;20028;-83
2022/08/18 07:36:53;;;;;;;30.55;23.05;;;;;;;21.37;95.53;101315.47;5063117;28;20028;-82
2022/08/18 07:39:25;;;;;;;27.15;21.17;;;;;;;21.42;94.57;101312.59;5064449;28;20546;-82
2022/08/18 07:42:13;;;;;;;29.30;21.88;;;;;;;21.43;96.49;101320.47;5066283;28;20035;-82
2022/08/18 07:44:58;;;;;;;25.23;19.53;;;;;;;21.42;95.28;101321.59;5067475;28;20033;-82
2022/08/18 07:47:55;;;;;;;25.53;19.30;;;;;;;21.68;95.05;101315.34;5061747;28;20623;-82
2022/08/18 07:50:23;;;;;;;26.90;20.20;;;;;;;22.05;90.53;101321.25;5069408;28;20029;-82
2022/08/18 07:53:10;;;;;;;24.45;19.33;;;;;;;22.33;91.17;101322.78;5068878;28;20166;-82
2022/08/18 07:55:35;;;;;;;24.42;17.38;;;;;;;22.64;88.19;101316.28;5069912;28;20039;-82
2022/08/18 07:58:12;;;;;;;24.63;16.83;;;;;;;22.42;85.45;101309.94;5069490;28;20028;-82
2022/08/18 08:00:52;;;;;;;24.92;16.75;;;;;;;22.52;86.83;101319.72;5069438;28;20032;-82
2022/08/18 08:03:46;;;;;;;24.20;16.85;;;;;;;22.68;88.57;101309.00;5067175;28;20047;-82
2022/08/18 08:06:25;;;;;;;21.85;16.70;;;;;;;22.61;86.29;101311.47;5069143;28;20418;-82
2022/08/18 08:09:19;;;;;;;21.50;15.57;;;;;;;22.76;86.92;101318.28;5073747;28;20020;-82
2022/08/18 08:11:54;;;;;;;20.23;15.48;;;;;;;22.66;82.32;101314.81;5068052;28;20090;-82
2022/08/18 08:14:38;;;;;;;20.88;15.45;;;;;;;22.93;82.34;101312.72;5058519;28;20025;-80
2022/08/18 08:17:22;;;;;;;19.35;14.93;;;;;;;22.77;82.11;101311.69;5064218;28;20020;-80
2022/08/18 08:20:17;;;;;;;18.10;14.60;;;;;;;22.88;85.28;101317.59;5073293;28;20035;-81
2022/08/18 08:22:43;;;;;;;23.83;15.37;;;;;;;22.98;82.70;101319.97;5073392;28;20282;-81
2022/08/18 08:25:38;;;;;;;18.50;15.03;;;;;;;23.00;82.98;101314.97;5071538;28;20162;-82
2022/08/18 08:28:33;;;;;;;18.63;14.07;;;;;;;22.95;83.44;101323.34;5068680;28;20302;-80
2022/08/18 08:31:05;;;;;;;18.25;13.95;;;;;;;23.01;82.47;101323.94;5067281;28;20415;-80
2022/08/18 08:33:35;;;;;;;16.65;12.73;;;;;;;22.99;80.41;101330.53;5071811;28;20048;-80
2022/08/18 08:36:09;;;;;;;16.90;14.30;;;;;;;22.90;83.61;101323.53;5073853;28;20032;-80
2022/08/18 08:38:56;;;;;;;20.60;15.75;;;;;;;22.87;85.22;101321.44;5072219;28;20383;-80
2022/08/18 08:41:31;;;;;;;20.23;15.63;;;;;;;22.94;84.70;101321.75;5072655;28;20067;-81
2022/08/18 08:44:32;;;;;;;20.40;16.38;;;;;;;23.18;84.21;101331.25;5068038;28;20021;-81
2022/08/18 08:47:06;;;;;;;21.52;17.20;;;;;;;23.39;81.81;101334.81;5043617;28;20064;-81
2022/08/18 08:49:43;;;;;;;21.20;15.75;;;;;;;23.75;82.20;101338.84;5070680;28;20027;-81
2022/08/18 08:52:33;;;;;;;20.87;14.53;;;;;;;23.78;78.17;101331.09;5071782;28;20036;-81
2022/08/18 08:55:14;;;;;;;18.90;13.97;;;;;;;23.77;77.90;101337.72;5070634;28;20416;-81
2022/08/18 08:57:46;;;;;;;18.63;14.73;;;;;;;23.73;79.07;101332.13;5071061;28;20033;-81
2022/08/18 09:00:13;;;;;;;20.27;15.50;;;;;;;23.87;79.24;101337.31;5071272;28;20032;-82
2022/08/18 09:02:47;;;;;;;21.17;13.70;;;;;;;23.92;77.31;101339.03;5072661;28;20048;-81
2022/08/18 09:05:22;;;;;;;17.52;13.15;;;;;;;23.69;76.75;101321.06;5071340;28;20036;-81
2022/08/18 09:08:21;;;;;;;15.35;13.60;;;;;;;23.70;77.88;101333.59;5071306;28;20021;-89
2022/08/18 09:11:12;;;;;;;17.05;14.07;;;;;;;23.94;78.12;101340.28;5067100;28;20060;-87
2022/08/18 09:14:05;;;;;;;14.95;13.23;;;;;;;24.43;76.35;101339.63;5067806;28;20039;-87
2022/08/18 09:16:46;;;;;;;14.40;11.38;;;;;;;24.70;74.92;101334.69;5049828;28;20119;-87
2022/08/18 09:27:43;;;;;;;11.73;10.45;;;;;;;24.64;73.91;101342.28;5222476;22;20424;-86
2022/08/18 09:30:45;;;;;;;13.52;9.70;;;;;;;25.12;73.54;101338.28;5071188;28;20431;-86
2022/08/18 09:33:44;;;;;;;12.02;10.15;;;;;;;25.54;70.80;101337.97;5065741;23;20365;-86
2022/08/18 09:36:30;;;;;;;14.05;10.75;;;;;;;25.53;70.06;101326.22;5028565;28;20037;-87
2022/08/18 09:42:01;;;;;;;15.07;10.73;;;;;;;25.60;68.38;101333.84;5050078;28;20040;-88
2022/08/18 09:44:47;;;;;;;12.48;8.73;;;;;;;25.74;67.73;101332.63;5048081;28;20024;-89
2022/08/18 09:47:19;;;;;;;13.87;8.47;;;;;;;25.87;66.07;101331.44;5033699;28;20033;-87
2022/08/18 09:49:53;;;;;;;9.83;8.57;;;;;;;25.92;65.20;101324.91;5042860;28;20323;-86
2022/08/18 09:52:25;;;;;;;9.80;7.90;;;;;;;25.90;63.63;101333.47;5048312;28;20024;-87
2022/08/18 09:54:57;;;;;;;10.95;7.88;;;;;;;25.98;63.23;101323.47;5047511;28;20362;-86
2022/08/18 09:57:24;;;;;;;9.90;7.53;;;;;;;26.06;62.74;101321.72;5051536;28;20061;-85
2022/08/18 09:59:56;;;;;;;10.18;8.40;;;;;;;26.03;61.91;101325.97;5051185;28;20029;-86
2022/08/18 10:02:27;;;;;;;8.57;7.25;;;;;;;25.84;62.91;101338.44;5051412;28;20606;-86
2022/08/18 10:05:14;;;;;;;11.52;7.80;;;;;;;25.70;64.74;101338.03;5049852;28;20033;-86
2022/08/18 10:07:45;;;;;;;8.18;7.20;;;;;;;25.49;64.75;101328.06;5051137;28;20037;-86
2022/08/18 10:10:48;;;;;;;7.85;7.10;;;;;;;25.61;66.07;101326.41;5051347;28;20029;-85
2022/08/18 10:13:50;;;;;;;10.85;7.15;;;;;;;25.89;66.50;101322.88;5047211;28;20024;-85
2022/08/18 10:16:24;;;;;;;9.87;7.03;;;;;;;26.26;62.75;101326.19;5045302;28;20387;-86
2022/08/18 10:19:09;;;;;;;10.15;6.93;;;;;;;26.60;60.19;101318.38;5051116;28;20032;-87
2022/08/18 10:21:54;;;;;;;7.03;6.22;;;;;;;27.35;62.64;101317.69;5049558;28;20151;-86
2022/08/18 10:24:22;;;;;;;9.25;6.88;;;;;;;27.52;57.16;101313.75;5050589;28;20033;-86
2022/08/18 10:26:47;;;;;;;8.50;7.20;;;;;;;27.53;56.21;101326.34;5049289;28;20025;-87
2022/08/18 10:29:28;;;;;;;9.90;7.10;;;;;;;27.53;59.83;101331.03;5041938;28;20052;-87
2022/08/18 10:31:53;;;;;;;12.48;8.40;;;;;;;27.28;55.82;101315.59;5050856;28;20620;-87
2022/08/18 10:34:42;;;;;;;12.50;9.53;;;;;;;27.54;59.40;101305.94;5048383;28;20033;-86
2022/08/18 10:37:46;;;;;;;11.70;8.60;;;;;;;27.49;59.30;101304.25;5049586;28;20116;-87
2022/08/18 10:40:19;;;;;;;9.45;6.82;;;;;;;27.27;57.73;101307.72;5050812;28;20048;-87
2022/08/18 10:42:52;;;;;;;12.50;8.68;;;;;;;26.85;57.87;101306.41;5049025;28;20078;-87
2022/08/18 10:45:33;;;;;;;11.13;9.40;;;;;;;26.61;59.29;101316.44;5050956;28;20040;-84
2022/08/18 10:48:21;;;;;;;10.43;8.13;;;;;;;26.28;60.35;101314.88;5049052;28;20095;-84
2022/08/18 10:51:02;;;;;;;12.67;8.37;;;;;;;26.17;60.38;101313.78;5031643;28;20059;-83
2022/08/18 10:54:03;;;;;;;8.33;7.53;;;;;;;26.06;60.19;101300.56;5031447;28;20303;-84
2022/08/18 10:56:44;;;;;;;9.27;7.93;;;;;;;26.17;61.44;101311.03;5043459;28;20081;-84
2022/08/18 10:59:26;;;;;;;10.80;9.70;;;;;;;26.53;56.81;101303.69;5037472;28;20494;-84
2022/08/18 11:02:04;;;;;;;12.77;8.50;;;;;;;27.38;59.25;101302.44;5046712;28;20025;-84
2022/08/18 11:04:36;;;;;;;11.85;9.02;;;;;;;27.90;55.72;101306.59;5027731;28;20036;-84
2022/08/18 11:07:26;;;;;;;10.73;9.10;;;;;;;28.06;53.58;101305.69;5021104;28;20030;-84
2022/08/18 11:09:54;;;;;;;9.57;8.63;;;;;;;28.02;54.36;101310.31;5050372;28;20480;-85
2022/08/18 11:12:50;;;;;;;10.10;7.72;;;;;;;27.93;57.54;101307.81;5050060;28;20032;-84
2022/08/18 11:15:31;;;;;;;8.75;7.43;;;;;;;27.63;54.30;101305.69;5050004;28;20017;-84
2022/08/18 11:18:14;;;;;;;10.13;7.20;;;;;;;27.54;55.70;101294.91;5031616;28;20078;-84
2022/08/18 11:20:41;;;;;;;9.37;7.60;;;;;;;27.70;54.33;101286.56;5049475;28;20275;-83
2022/08/18 11:23:13;;;;;;;11.15;7.65;;;;;;;27.64;55.24;101286.06;5050509;28;20052;-84
2022/08/18 11:25:40;;;;;;;8.80;7.40;;;;;;;27.69;54.31;101275.91;5050082;28;20017;-84
2022/08/18 11:28:18;;;;;;;10.43;8.23;;;;;;;27.90;54.49;101267.25;5049186;28;20032;-84
2022/08/18 11:30:47;;;;;;;8.05;7.25;;;;;;;28.28;52.84;101273.03;5045932;28;20074;-84
2022/08/18 11:33:15;;;;;;;9.25;8.20;;;;;;;28.17;50.94;101276.38;5049537;28;20439;-84
2022/08/18 11:35:59;;;;;;;8.23;7.53;;;;;;;28.19;54.37;101276.81;5050179;28;20035;-84
2022/08/18 11:38:27;;;;;;;8.27;7.43;;;;;;;28.23;51.52;101272.16;5030835;28;20115;-84
2022/08/18 11:41:24;;;;;;;8.02;7.20;;;;;;;28.32;52.06;101265.59;5048124;28;20021;-84
2022/08/18 11:43:56;;;;;;;7.00;6.30;;;;;;;28.12;51.79;101257.41;5047090;28;20135;-84
2022/08/18 11:46:37;;;;;;;8.87;7.97;;;;;;;27.87;52.16;101245.94;5029961;28;20348;-84
2022/08/18 11:49:28;;;;;;;10.90;7.90;;;;;;;27.82;53.05;101249.81;5044192;28;20465;-84
2022/08/18 11:52:01;;;;;;;8.40;6.95;;;;;;;27.98;52.59;101254.38;5048848;28;20064;-84
2022/08/18 11:54:44;;;;;;;8.48;7.57;;;;;;;27.96;52.59;101252.78;5049211;28;20052;-85
2022/08/18 11:57:40;;;;;;;8.63;7.70;;;;;;;27.57;54.06;101244.63;5048776;28;20032;-84
2022/08/18 12:00:35;;;;;;;8.95;7.00;;;;;;;27.71;54.42;101235.06;5048446;28;20488;-84
2022/08/18 12:03:07;;;;;;;10.45;9.13;;;;;;;27.90;52.09;101246.03;5049628;28;20029;-85
2022/08/18 12:05:45;;;;;;;13.77;8.82;;;;;;;27.87;52.75;101241.25;5039892;28;20112;-84